National Weather Service Raw Text Product

Displaying AFOS PIL: TAFALO Received: 2018-01-03 01:01 UTC


405 
FTUS43 KDMX 030101 AAA
TAFALO
TAF AMD
KALO 030101Z 0301/0324 21011G17KT P6SM FEW070 SCT120 BKN200
      TEMPO 0301/0303 1SM -SN SCT007 BKN015
     FM030400 24012G18KT P6SM SCT035 OVC060
     FM030800 32018G26KT P6SM BKN025
     FM031100 33017G25KT P6SM SCT035=